createdAt,value
2022-12-08T00:01:16.362Z,5.55
2022-12-08T00:02:19.278Z,5.05
2022-12-08T00:03:22.232Z,5.97
2022-12-08T00:04:25.263Z,6.10
2022-12-08T00:05:46.537Z,5.88
2022-12-08T00:07:07.704Z,6.10
2022-12-08T00:08:29.103Z,5.28
2022-12-08T00:09:39.127Z,6.13
2022-12-08T00:10:49.928Z,5.60
2022-12-08T00:11:58.512Z,5.32
2022-12-08T00:13:01.262Z,4.85
2022-12-08T00:14:04.210Z,5.82
2022-12-08T00:15:07.336Z,6.20
2022-12-08T00:16:10.309Z,5.60
2022-12-08T00:17:14.607Z,5.50
2022-12-08T00:18:17.283Z,5.00
2022-12-08T00:19:20.511Z,4.72
2022-12-08T00:20:23.238Z,5.53
2022-12-08T00:21:25.935Z,5.72
2022-12-08T00:22:29.344Z,4.65
2022-12-08T00:23:32.057Z,6.00
2022-12-08T00:24:38.527Z,5.40
2022-12-08T00:25:41.450Z,5.28
2022-12-08T00:26:44.317Z,4.00
2022-12-08T00:27:47.196Z,4.95
2022-12-08T00:28:49.936Z,4.60
2022-12-08T00:29:52.597Z,4.97
2022-12-08T00:30:55.577Z,4.70
2022-12-08T00:31:58.348Z,5.40
2022-12-08T00:33:01.119Z,5.20
2022-12-08T00:34:04.621Z,4.90
2022-12-08T00:35:07.503Z,4.55
2022-12-08T00:36:12.504Z,5.07
2022-12-08T00:37:15.276Z,4.50
2022-12-08T00:38:17.933Z,5.00
2022-12-08T00:39:20.686Z,4.60
2022-12-08T00:40:23.479Z,4.57
2022-12-08T00:41:45.937Z,5.32
2022-12-08T00:42:48.580Z,4.50
2022-12-08T00:43:51.681Z,4.68
2022-12-08T00:44:54.782Z,5.00
2022-12-08T00:45:57.871Z,4.47
2022-12-08T00:47:00.668Z,3.90
2022-12-08T00:48:03.450Z,4.38
2022-12-08T00:49:06.948Z,4.10
2022-12-08T00:50:10.387Z,4.70
2022-12-08T00:51:13.068Z,5.18
2022-12-08T00:52:15.843Z,4.28
2022-12-08T00:53:18.628Z,3.80
2022-12-08T00:54:23.056Z,4.00
2022-12-08T00:55:25.862Z,4.07
2022-12-08T00:56:28.677Z,4.13
2022-12-08T00:57:31.663Z,4.10
2022-12-08T00:58:34.341Z,3.88
2022-12-08T00:59:37.290Z,3.55
2022-12-08T01:00:43.548Z,4.40
2022-12-08T01:01:47.459Z,3.85
2022-12-08T01:02:50.228Z,3.88
2022-12-08T01:03:52.981Z,4.40
2022-12-08T01:04:55.677Z,3.90
2022-12-08T01:06:03.810Z,3.92
2022-12-08T01:07:06.598Z,3.55
2022-12-08T01:08:09.582Z,3.67
2022-12-08T01:09:14.715Z,3.30
2022-12-08T01:10:17.591Z,3.35
2022-12-08T01:11:20.523Z,3.72
2022-12-08T01:12:23.203Z,4.05
2022-12-08T01:13:25.894Z,2.88
2022-12-08T01:14:28.786Z,3.40
2022-12-08T01:15:31.524Z,3.03
2022-12-08T01:16:36.556Z,3.45
2022-12-08T01:17:39.388Z,2.88
2022-12-08T01:18:42.062Z,2.88
2022-12-08T01:19:44.680Z,3.08
2022-12-08T01:20:47.506Z,3.00
2022-12-08T01:21:50.231Z,3.38
2022-12-08T01:22:52.946Z,3.83
2022-12-08T01:23:56.087Z,3.88
2022-12-08T01:24:58.848Z,4.00
2022-12-08T01:26:03.563Z,3.40
2022-12-08T01:27:06.192Z,3.10
2022-12-08T01:28:08.934Z,3.13
2022-12-08T01:29:11.943Z,3.30
2022-12-08T01:30:14.961Z,3.33
2022-12-08T01:31:20.835Z,3.15
2022-12-08T01:32:23.568Z,3.53
2022-12-08T01:33:26.499Z,2.85
2022-12-08T01:34:29.125Z,2.97
2022-12-08T01:35:31.845Z,3.05
2022-12-08T01:36:38.800Z,2.75
2022-12-08T01:37:41.572Z,3.28
2022-12-08T01:38:44.255Z,3.20
2022-12-08T01:39:46.965Z,3.67
2022-12-08T01:40:49.640Z,2.50
2022-12-08T01:41:52.263Z,2.85
2022-12-08T01:42:55.084Z,2.92
2022-12-08T01:44:08.416Z,2.60
2022-12-08T01:45:29.320Z,2.75
2022-12-08T01:46:33.474Z,2.90
2022-12-08T01:47:40.272Z,2.67
2022-12-08T01:48:42.999Z,2.72
2022-12-08T01:49:45.985Z,2.65
2022-12-08T01:50:49.314Z,2.63
2022-12-08T01:52:11.990Z,2.28
2022-12-08T01:53:29.584Z,2.28
2022-12-08T01:54:36.865Z,2.97
2022-12-08T01:55:45.227Z,3.05
2022-12-08T01:56:59.318Z,2.92
2022-12-08T01:58:13.120Z,2.20
2022-12-08T01:59:15.964Z,2.20
2022-12-08T02:00:21.376Z,2.30
2022-12-08T02:01:24.612Z,3.20
2022-12-08T02:02:31.666Z,2.35
2022-12-08T02:03:42.520Z,2.60
2022-12-08T02:05:48.021Z,2.38
2022-12-08T02:06:51.353Z,2.72
2022-12-08T02:07:55.103Z,2.85
2022-12-08T02:08:58.594Z,2.50
2022-12-08T02:10:01.790Z,2.63
2022-12-08T02:11:06.480Z,2.42
2022-12-08T02:12:09.877Z,2.25
2022-12-08T02:13:17.583Z,2.88
2022-12-08T02:14:20.224Z,2.47
2022-12-08T02:16:07.684Z,2.38
2022-12-08T02:17:27.865Z,2.67
2022-12-08T02:18:42.630Z,2.63
2022-12-08T02:20:16.123Z,3.00
2022-12-08T02:21:33.685Z,2.22
2022-12-08T02:22:54.745Z,2.47
2022-12-08T02:24:10.102Z,2.38
2022-12-08T02:25:21.061Z,2.67
2022-12-08T02:26:44.727Z,1.90
2022-12-08T02:27:53.270Z,2.78
2022-12-08T02:29:43.975Z,2.60
2022-12-08T02:31:05.617Z,2.47
2022-12-08T02:32:29.755Z,2.55
2022-12-08T02:33:53.787Z,2.30
2022-12-08T02:34:56.427Z,2.50
2022-12-08T02:36:07.296Z,2.50
2022-12-08T02:38:29.203Z,3.10
2022-12-08T02:39:41.782Z,3.03
2022-12-08T02:41:00.550Z,2.63
2022-12-08T02:42:15.159Z,2.90
2022-12-08T02:43:32.505Z,2.10
2022-12-08T02:47:18.870Z,3.15
2022-12-08T02:48:21.935Z,2.35
2022-12-08T02:49:32.484Z,2.42
2022-12-08T02:50:35.186Z,2.80
2022-12-08T02:51:37.842Z,2.63
2022-12-08T02:52:42.767Z,2.75
2022-12-08T02:53:46.028Z,2.50
2022-12-08T02:55:07.012Z,2.78
2022-12-08T02:56:27.972Z,3.05
2022-12-08T02:58:57.479Z,2.75
2022-12-08T03:00:07.679Z,2.42
2022-12-08T03:01:36.639Z,2.53
2022-12-08T03:03:04.353Z,2.55
2022-12-08T03:04:24.987Z,2.92
2022-12-08T03:05:39.289Z,2.90
2022-12-08T03:06:55.567Z,3.03
2022-12-08T03:08:17.040Z,3.03
2022-12-08T03:09:22.721Z,3.03
2022-12-08T03:10:30.502Z,2.55
2022-12-08T03:11:51.709Z,2.85
2022-12-08T03:13:12.571Z,3.03
2022-12-08T03:15:21.005Z,3.00
2022-12-08T03:16:27.502Z,2.85
2022-12-08T03:17:31.508Z,2.60
2022-12-08T03:18:38.439Z,2.28
2022-12-08T03:19:42.630Z,2.78
2022-12-08T03:20:46.532Z,2.92
2022-12-08T03:21:51.867Z,3.72
2022-12-08T03:22:56.789Z,3.17
2022-12-08T03:24:01.121Z,3.33
2022-12-08T03:25:04.120Z,2.55
2022-12-08T03:26:13.703Z,3.90
2022-12-08T03:27:20.228Z,3.38
2022-12-08T03:28:22.954Z,3.45
2022-12-08T03:29:25.876Z,3.88
2022-12-08T03:30:30.021Z,3.00
2022-12-08T03:31:34.608Z,2.40
2022-12-08T03:32:47.781Z,2.63
2022-12-08T03:33:52.116Z,2.60
2022-12-08T03:34:56.970Z,3.33
2022-12-08T03:36:03.192Z,2.75
2022-12-08T03:37:05.896Z,2.58
2022-12-08T03:38:11.806Z,2.97
2022-12-08T03:39:14.896Z,3.13
2022-12-08T03:40:20.581Z,3.63
2022-12-08T03:41:23.634Z,3.85
2022-12-08T03:42:26.259Z,2.80
2022-12-08T03:43:29.044Z,3.03
2022-12-08T03:44:31.686Z,3.30
2022-12-08T03:45:34.601Z,3.38
2022-12-08T03:46:37.250Z,3.30
2022-12-08T03:47:39.969Z,3.08
2022-12-08T03:48:43.102Z,3.95
2022-12-08T03:49:45.704Z,3.55
2022-12-08T03:50:48.375Z,2.97
2022-12-08T03:51:50.994Z,3.25
2022-12-08T03:52:53.784Z,3.72
2022-12-08T03:53:56.579Z,3.40
2022-12-08T03:54:59.316Z,4.05
2022-12-08T03:56:12.017Z,3.20
2022-12-08T03:57:14.818Z,3.20
2022-12-08T03:58:17.452Z,3.05
2022-12-08T03:59:20.246Z,3.85
2022-12-08T04:00:23.106Z,3.90
2022-12-08T04:01:26.083Z,3.53
2022-12-08T04:02:28.744Z,3.10
2022-12-08T04:03:31.553Z,3.03
2022-12-08T04:04:34.344Z,3.80
2022-12-08T04:05:37.179Z,3.35
2022-12-08T04:06:39.802Z,3.38
2022-12-08T04:07:42.484Z,3.35
2022-12-08T04:08:45.263Z,3.88
2022-12-08T04:09:47.993Z,3.20
2022-12-08T04:10:50.698Z,3.67
2022-12-08T04:11:53.388Z,3.10
2022-12-08T04:12:57.013Z,3.60
2022-12-08T04:13:59.654Z,3.50
2022-12-08T04:15:02.286Z,3.47
2022-12-08T04:16:05.439Z,4.18
2022-12-08T04:17:08.141Z,3.67
2022-12-08T04:18:10.856Z,4.03
2022-12-08T04:19:13.616Z,4.25
2022-12-08T04:20:16.295Z,3.60
2022-12-08T04:21:19.287Z,4.50
2022-12-08T04:22:21.923Z,3.95
2022-12-08T04:23:24.809Z,3.47
2022-12-08T04:24:27.522Z,3.65
2022-12-08T04:25:30.209Z,4.35
2022-12-08T04:26:32.895Z,3.90
2022-12-08T04:27:35.551Z,4.43
2022-12-08T04:28:38.498Z,4.05
2022-12-08T04:29:41.157Z,4.07
2022-12-08T04:30:44.025Z,3.92
2022-12-08T04:31:46.672Z,4.47
2022-12-08T04:32:49.572Z,4.35
2022-12-08T04:33:52.252Z,4.55
2022-12-08T04:34:55.506Z,4.75
2022-12-08T04:35:58.278Z,4.10
2022-12-08T04:37:01.259Z,4.65
2022-12-08T04:38:04.030Z,4.55
2022-12-08T04:39:06.924Z,3.78
2022-12-08T04:40:10.476Z,3.90
2022-12-08T04:41:13.139Z,4.32
2022-12-08T04:42:15.788Z,5.00
2022-12-08T04:43:18.532Z,4.00
2022-12-08T04:44:21.189Z,4.13
2022-12-08T04:45:23.959Z,4.00
2022-12-08T04:46:29.081Z,3.95
2022-12-08T04:47:31.786Z,4.05
2022-12-08T04:48:35.032Z,3.85
2022-12-08T04:49:37.707Z,4.28
2022-12-08T04:50:42.103Z,4.07
2022-12-08T04:51:45.167Z,3.92
2022-12-08T04:52:48.199Z,4.25
2022-12-08T04:53:50.944Z,4.22
2022-12-08T04:54:53.590Z,4.10
2022-12-08T04:55:56.553Z,3.85
2022-12-08T04:56:59.178Z,4.35
2022-12-08T04:58:01.816Z,3.65
2022-12-08T04:59:04.671Z,4.63
2022-12-08T05:00:08.145Z,4.68
2022-12-08T05:01:11.188Z,4.38
2022-12-08T05:02:14.178Z,4.50
2022-12-08T05:03:17.764Z,3.58
2022-12-08T05:04:20.589Z,3.90
2022-12-08T05:05:23.373Z,4.63
2022-12-08T05:06:26.087Z,4.25
2022-12-08T05:07:28.772Z,4.43
2022-12-08T05:08:32.081Z,4.57
2022-12-08T05:09:34.866Z,3.75
2022-12-08T05:10:37.853Z,4.65
2022-12-08T05:11:48.383Z,4.28
2022-12-08T05:12:51.405Z,4.68
2022-12-08T05:13:54.114Z,5.07
2022-12-08T05:14:56.736Z,3.80
2022-12-08T05:16:04.220Z,4.30
2022-12-08T05:17:09.703Z,4.28
2022-12-08T05:18:12.605Z,4.10
2022-12-08T05:19:16.046Z,4.82
2022-12-08T05:20:18.996Z,4.68
2022-12-08T05:21:21.766Z,3.85
2022-12-08T05:22:24.497Z,4.22
2022-12-08T05:23:27.508Z,4.28
2022-12-08T05:24:30.213Z,4.60
2022-12-08T05:25:32.829Z,4.85
2022-12-08T05:26:35.611Z,5.00
2022-12-08T05:27:38.258Z,4.88
2022-12-08T05:28:42.708Z,3.72
2022-12-08T05:29:48.118Z,4.47
2022-12-08T05:30:51.195Z,4.35
2022-12-08T05:31:54.138Z,4.15
2022-12-08T05:32:56.833Z,4.75
2022-12-08T05:34:03.184Z,3.35
2022-12-08T05:35:07.014Z,5.55
2022-12-08T05:36:10.883Z,4.15
2022-12-08T05:37:13.640Z,4.75
2022-12-08T05:38:16.314Z,4.90
2022-12-08T05:39:19.097Z,4.28
2022-12-08T05:40:21.854Z,4.35
2022-12-08T05:41:24.721Z,4.30
2022-12-08T05:42:27.419Z,4.07
2022-12-08T05:43:30.089Z,4.75
2022-12-08T05:44:32.722Z,5.20
2022-12-08T05:45:35.491Z,5.10
2022-12-08T05:46:38.303Z,4.93
2022-12-08T05:47:40.946Z,5.25
2022-12-08T05:48:43.658Z,5.57
2022-12-08T05:49:46.616Z,5.03
2022-12-08T05:50:50.266Z,5.40
2022-12-08T05:51:53.024Z,5.20
2022-12-08T05:52:55.810Z,5.28
2022-12-08T05:53:59.018Z,5.45
2022-12-08T05:55:01.789Z,4.57
2022-12-08T05:56:04.881Z,4.72
2022-12-08T05:57:07.520Z,4.78
2022-12-08T05:58:18.386Z,5.63
2022-12-08T05:59:21.187Z,4.78
2022-12-08T06:00:24.070Z,4.78
2022-12-08T06:01:31.662Z,5.13
2022-12-08T06:02:35.740Z,4.50
2022-12-08T06:03:38.578Z,4.75
2022-12-08T06:04:41.395Z,4.82
2022-12-08T06:05:45.341Z,5.30
2022-12-08T06:06:48.080Z,3.92
2022-12-08T06:07:50.826Z,5.05
2022-12-08T06:08:53.692Z,4.68
2022-12-08T06:09:56.439Z,4.63
2022-12-08T06:10:59.134Z,5.07
2022-12-08T06:12:02.343Z,5.10
2022-12-08T06:13:05.075Z,4.28
2022-12-08T06:14:11.312Z,3.75
2022-12-08T06:15:14.006Z,4.40
2022-12-08T06:16:16.824Z,4.63
2022-12-08T06:17:19.479Z,4.40
2022-12-08T06:18:22.257Z,4.15
2022-12-08T06:19:24.889Z,3.70
2022-12-08T06:20:27.721Z,4.57
2022-12-08T06:21:30.399Z,3.63
2022-12-08T06:22:33.102Z,4.10
2022-12-08T06:23:35.966Z,4.05
2022-12-08T06:24:38.563Z,4.20
2022-12-08T06:25:41.239Z,4.55
2022-12-08T06:26:44.065Z,4.47
2022-12-08T06:27:46.765Z,3.83
2022-12-08T06:28:49.870Z,3.55
2022-12-08T06:29:52.747Z,3.90
2022-12-08T06:30:55.441Z,3.50
2022-12-08T06:31:58.232Z,4.38
2022-12-08T06:33:01.117Z,4.38
2022-12-08T06:34:04.205Z,3.83
2022-12-08T06:35:07.169Z,4.22
2022-12-08T06:36:12.613Z,3.90
2022-12-08T06:37:15.289Z,3.83
2022-12-08T06:38:18.469Z,4.25
2022-12-08T06:39:21.182Z,4.22
2022-12-08T06:40:23.839Z,4.55
2022-12-08T06:41:26.759Z,4.40
2022-12-08T06:42:44.299Z,3.97
2022-12-08T06:43:47.050Z,4.10
2022-12-08T06:44:50.773Z,4.25
2022-12-08T06:45:53.590Z,4.13
2022-12-08T06:46:56.312Z,4.10
2022-12-08T06:47:58.969Z,4.00
2022-12-08T06:49:01.633Z,3.85
2022-12-08T06:50:06.628Z,4.35
2022-12-08T06:51:11.872Z,3.97
2022-12-08T06:52:15.325Z,3.88
2022-12-08T06:53:18.292Z,4.13
2022-12-08T06:54:20.914Z,4.10
2022-12-08T06:55:50.768Z,3.65
2022-12-08T06:56:46.144Z,3.97
2022-12-08T06:57:51.224Z,4.20
2022-12-08T06:58:56.750Z,3.83
2022-12-08T06:59:59.414Z,4.30
2022-12-08T07:01:12.248Z,4.72
2022-12-08T07:02:14.975Z,4.22
2022-12-08T07:03:17.693Z,5.30
2022-12-08T07:04:20.302Z,4.80
2022-12-08T07:05:22.947Z,4.75
2022-12-08T07:06:25.676Z,4.43
2022-12-08T07:07:28.302Z,4.53
2022-12-08T07:08:31.525Z,5.10
2022-12-08T07:09:34.280Z,4.10
2022-12-08T07:10:37.415Z,4.65
2022-12-08T07:11:42.364Z,4.28
2022-12-08T07:12:45.515Z,5.05
2022-12-08T07:13:48.216Z,4.65
2022-12-08T07:14:50.859Z,4.65
2022-12-08T07:15:53.493Z,5.05
2022-12-08T07:16:56.265Z,4.63
2022-12-08T07:18:00.209Z,4.75
2022-12-08T07:19:03.319Z,4.63
2022-12-08T07:20:07.059Z,4.65
2022-12-08T07:21:12.186Z,4.22
2022-12-08T07:22:14.863Z,4.32
2022-12-08T07:23:17.517Z,5.00
2022-12-08T07:24:20.200Z,4.40
2022-12-08T07:25:22.970Z,4.57
2022-12-08T07:26:26.859Z,4.97
2022-12-08T07:27:29.501Z,3.97
2022-12-08T07:28:36.687Z,4.60
2022-12-08T07:29:39.395Z,4.50
2022-12-08T07:30:42.112Z,5.28
2022-12-08T07:31:45.311Z,5.53
2022-12-08T07:32:47.978Z,4.45
2022-12-08T07:33:51.656Z,4.15
2022-12-08T07:34:54.272Z,4.78
2022-12-08T07:35:58.582Z,4.72
2022-12-08T07:37:01.867Z,5.55
2022-12-08T07:38:04.561Z,4.53
2022-12-08T07:39:07.240Z,5.20
2022-12-08T07:40:10.626Z,4.97
2022-12-08T07:41:18.676Z,4.90
2022-12-08T07:42:21.298Z,5.22
2022-12-08T07:43:24.333Z,4.85
2022-12-08T07:44:26.993Z,5.07
2022-12-08T07:45:31.649Z,4.85
2022-12-08T07:46:34.768Z,5.72
2022-12-08T07:47:37.599Z,4.35
2022-12-08T07:48:40.656Z,5.28
2022-12-08T07:49:43.293Z,5.90
2022-12-08T07:50:47.484Z,5.38
2022-12-08T07:51:50.162Z,5.22
2022-12-08T07:52:52.888Z,5.22
2022-12-08T07:53:55.629Z,4.82
2022-12-08T07:54:58.345Z,5.50
2022-12-08T07:56:01.078Z,5.07
2022-12-08T07:57:06.112Z,4.75
2022-12-08T07:58:09.285Z,4.72
2022-12-08T07:59:12.106Z,5.10
2022-12-08T08:00:15.631Z,5.15
2022-12-08T08:01:29.368Z,4.95
2022-12-08T08:02:32.382Z,4.78
2022-12-08T08:03:35.222Z,4.72
2022-12-08T08:04:37.961Z,5.00
2022-12-08T08:05:40.713Z,4.97
2022-12-08T08:06:43.387Z,5.35
2022-12-08T08:07:48.306Z,4.43
2022-12-08T08:08:51.192Z,4.25
2022-12-08T08:09:54.023Z,4.97
2022-12-08T08:10:56.896Z,4.63
2022-12-08T08:12:29.020Z,5.07
2022-12-08T08:13:22.189Z,4.63
2022-12-08T08:14:24.925Z,4.95
2022-12-08T08:15:27.792Z,4.60
2022-12-08T08:16:36.548Z,4.68
2022-12-08T08:17:41.046Z,4.55
2022-12-08T08:18:43.793Z,4.75
2022-12-08T08:19:46.791Z,4.13
2022-12-08T08:20:50.027Z,4.38
2022-12-08T08:21:52.717Z,4.18
2022-12-08T08:22:55.326Z,4.70
2022-12-08T08:23:57.992Z,3.80
2022-12-08T08:25:00.725Z,4.80
2022-12-08T08:26:05.283Z,4.28
2022-12-08T08:27:07.905Z,4.03
2022-12-08T08:28:10.724Z,4.90
2022-12-08T08:29:13.487Z,5.18
2022-12-08T08:30:20.436Z,5.32
2022-12-08T08:31:27.335Z,5.25
2022-12-08T08:32:33.932Z,4.60
2022-12-08T08:33:36.692Z,4.00
2022-12-08T08:34:39.780Z,4.60
2022-12-08T08:35:42.544Z,4.82
2022-12-08T08:36:45.273Z,4.95
2022-12-08T08:37:49.369Z,4.93
2022-12-08T08:38:52.757Z,4.90
2022-12-08T08:39:56.686Z,4.90
2022-12-08T08:40:59.259Z,4.68
2022-12-08T08:42:02.657Z,4.60
2022-12-08T08:43:06.491Z,5.30
2022-12-08T08:44:09.233Z,4.57
2022-12-08T08:45:12.212Z,3.95
2022-12-08T08:46:14.899Z,5.20
2022-12-08T08:47:17.734Z,4.38
2022-12-08T08:48:20.516Z,4.60
2022-12-08T08:49:23.168Z,4.47
2022-12-08T08:50:26.637Z,4.72
2022-12-08T08:51:29.278Z,5.20
2022-12-08T08:52:32.104Z,4.85
2022-12-08T08:53:35.029Z,4.35
2022-12-08T08:54:37.801Z,5.13
2022-12-08T08:55:40.436Z,4.35
2022-12-08T08:56:43.128Z,4.18
2022-12-08T08:57:45.754Z,4.18
2022-12-08T08:58:49.717Z,5.07
2022-12-08T08:59:52.451Z,4.38
2022-12-08T09:00:55.149Z,4.78
2022-12-08T09:01:57.943Z,4.82
2022-12-08T09:03:00.689Z,4.22
2022-12-08T09:04:03.559Z,4.30
2022-12-08T09:05:06.845Z,5.13
2022-12-08T09:06:09.745Z,4.70
2022-12-08T09:07:13.011Z,4.55
2022-12-08T09:08:15.675Z,4.43
2022-12-08T09:09:18.484Z,4.53
2022-12-08T09:10:21.359Z,4.80
2022-12-08T09:11:24.341Z,4.07
2022-12-08T09:12:27.258Z,4.18
2022-12-08T09:13:29.880Z,4.28
2022-12-08T09:14:32.605Z,3.95
2022-12-08T09:15:35.297Z,4.55
2022-12-08T09:16:42.245Z,4.68
2022-12-08T09:17:45.346Z,4.70
2022-12-08T09:18:50.931Z,4.13
2022-12-08T09:19:53.781Z,4.72
2022-12-08T09:20:56.693Z,4.32
2022-12-08T09:21:59.301Z,4.35
2022-12-08T09:23:02.197Z,4.38
2022-12-08T09:24:05.116Z,4.82
2022-12-08T09:25:08.242Z,4.80
2022-12-08T09:26:11.053Z,4.25
2022-12-08T09:27:13.764Z,4.65
2022-12-08T09:28:16.396Z,4.78
2022-12-08T09:29:19.061Z,4.75
2022-12-08T09:30:21.759Z,4.80
2022-12-08T09:31:25.119Z,4.75
2022-12-08T09:32:27.830Z,4.90
2022-12-08T09:33:30.528Z,5.10
2022-12-08T09:34:33.229Z,5.00
2022-12-08T09:35:35.881Z,4.68
2022-12-08T09:36:38.975Z,5.07
2022-12-08T09:37:41.649Z,5.13
2022-12-08T09:38:44.294Z,5.60
2022-12-08T09:39:47.314Z,5.55
2022-12-08T09:40:52.689Z,5.97
2022-12-08T09:42:03.837Z,6.28
2022-12-08T09:43:31.185Z,6.50
2022-12-08T09:44:55.396Z,6.13
2022-12-08T09:45:58.865Z,6.53
2022-12-08T09:47:04.102Z,7.10
2022-12-08T09:48:14.959Z,6.13
2022-12-08T09:49:23.370Z,6.88
2022-12-08T09:50:30.136Z,6.15
2022-12-08T09:51:38.425Z,6.30
2022-12-08T09:52:47.843Z,6.28
2022-12-08T09:53:54.833Z,6.13
2022-12-08T09:54:59.880Z,6.78
2022-12-08T09:56:05.433Z,6.13
2022-12-08T09:57:15.358Z,6.15
2022-12-08T09:58:25.988Z,6.90
2022-12-08T09:59:35.351Z,6.40
2022-12-08T10:00:38.086Z,6.28
2022-12-08T10:01:44.070Z,6.05
2022-12-08T10:02:47.565Z,6.60
2022-12-08T10:03:50.478Z,6.40
2022-12-08T10:04:55.596Z,7.03
2022-12-08T10:06:08.348Z,6.55
2022-12-08T10:07:18.547Z,7.03
2022-12-08T10:08:27.706Z,6.22
2022-12-08T10:09:46.130Z,6.63
2022-12-08T10:10:58.999Z,7.22
2022-12-08T10:12:14.520Z,6.28
2022-12-08T10:13:47.424Z,6.50
2022-12-08T10:15:09.034Z,6.82
2022-12-08T10:16:35.151Z,7.18
2022-12-08T10:17:44.974Z,6.85
2022-12-08T10:19:05.582Z,6.60
2022-12-08T10:20:15.013Z,7.68
2022-12-08T10:21:25.921Z,7.63
2022-12-08T10:22:33.865Z,7.28
2022-12-08T10:23:38.643Z,7.68
2022-12-08T10:24:44.902Z,8.18
2022-12-08T10:25:59.454Z,7.30
2022-12-08T10:27:03.134Z,7.30
2022-12-08T10:28:05.841Z,6.18
2022-12-08T10:29:13.296Z,7.68
2022-12-08T10:30:20.899Z,7.60
2022-12-08T10:31:25.134Z,7.65
2022-12-08T10:32:33.884Z,7.93
2022-12-08T10:33:36.526Z,7.80
2022-12-08T10:35:06.005Z,7.95
2022-12-08T10:36:11.051Z,8.02
2022-12-08T10:37:16.880Z,7.88
2022-12-08T10:38:27.343Z,7.97
2022-12-08T10:39:43.821Z,7.65
2022-12-08T10:40:47.493Z,7.53
2022-12-08T10:41:51.591Z,8.52
2022-12-08T10:42:56.839Z,6.63
2022-12-08T10:44:01.267Z,7.95
2022-12-08T10:45:10.139Z,7.22
2022-12-08T10:46:17.594Z,8.02
2022-12-08T10:47:25.986Z,7.93
2022-12-08T10:48:31.361Z,8.02
2022-12-08T10:49:35.916Z,7.45
2022-12-08T10:50:46.028Z,7.05
2022-12-08T10:51:48.674Z,6.53
2022-12-08T10:53:13.299Z,8.35
2022-12-08T10:54:37.308Z,6.15
2022-12-08T10:56:02.786Z,7.22
2022-12-08T10:57:05.530Z,6.88
2022-12-08T10:58:28.099Z,6.10
2022-12-08T10:59:33.551Z,6.63
2022-12-08T11:00:39.423Z,7.22
2022-12-08T11:01:45.878Z,7.15
2022-12-08T11:03:01.741Z,7.13
2022-12-08T11:04:10.792Z,7.10
2022-12-08T11:05:16.523Z,8.18
2022-12-08T11:06:25.993Z,7.82
2022-12-08T11:07:28.798Z,8.10
2022-12-08T11:08:31.818Z,8.45
2022-12-08T11:09:46.717Z,7.00
2022-12-08T11:10:50.066Z,7.03
2022-12-08T11:11:57.996Z,7.90
2022-12-08T11:13:02.558Z,7.32
2022-12-08T11:14:09.133Z,7.00
2022-12-08T11:15:16.705Z,8.73
2022-12-08T11:16:20.444Z,9.07
2022-12-08T11:17:23.069Z,7.70
2022-12-08T11:18:30.461Z,7.53
2022-12-08T11:19:37.914Z,7.72
2022-12-08T11:20:42.259Z,7.38
2022-12-08T11:21:45.195Z,7.75
2022-12-08T11:22:57.160Z,8.02
2022-12-08T11:24:12.259Z,7.88
2022-12-08T11:25:19.546Z,7.68
2022-12-08T11:26:34.005Z,8.25
2022-12-08T11:27:43.513Z,8.43
2022-12-08T11:28:46.233Z,8.60
2022-12-08T11:29:49.432Z,8.43
2022-12-08T11:31:07.412Z,7.90
2022-12-08T11:32:13.997Z,8.70
2022-12-08T11:33:22.400Z,8.30
2022-12-08T11:34:46.980Z,8.02
2022-12-08T11:36:03.417Z,7.22
2022-12-08T11:37:07.944Z,8.20
2022-12-08T11:38:22.670Z,8.60
2022-12-08T11:39:27.406Z,7.82
2022-12-08T11:40:34.899Z,8.32
2022-12-08T11:41:43.232Z,7.70
2022-12-08T11:42:58.156Z,8.48
2022-12-08T11:44:36.052Z,8.23
2022-12-08T11:45:38.986Z,8.70
2022-12-08T11:46:53.428Z,7.93
2022-12-08T11:48:11.393Z,8.00
2022-12-08T11:49:14.753Z,8.52
2022-12-08T11:50:22.660Z,8.85
2022-12-08T11:51:45.942Z,8.00
2022-12-08T11:52:51.575Z,8.75
2022-12-08T11:54:15.903Z,8.80
2022-12-08T11:55:37.205Z,9.32
2022-12-08T11:56:50.587Z,7.50
2022-12-08T11:57:55.177Z,8.05
2022-12-08T11:59:01.858Z,9.05
2022-12-08T12:00:05.602Z,7.65
2022-12-08T12:01:22.579Z,7.97
2022-12-08T12:02:30.250Z,7.88
2022-12-08T12:03:43.442Z,8.95
2022-12-08T12:05:11.577Z,8.68
2022-12-08T12:08:07.477Z,10.60
2022-12-08T12:09:38.779Z,9.50
2022-12-08T12:10:44.144Z,10.23
2022-12-08T12:12:14.116Z,9.13
2022-12-08T12:13:53.459Z,8.73
2022-12-08T12:15:15.468Z,9.38
2022-12-08T12:16:35.967Z,11.07
2022-12-08T12:17:56.451Z,10.00
2022-12-08T12:19:05.777Z,10.10
2022-12-08T12:20:19.544Z,10.15
2022-12-08T12:21:29.418Z,9.95
2022-12-08T12:22:35.322Z,9.95
2022-12-08T12:23:40.693Z,10.10
2022-12-08T12:24:45.636Z,9.95
2022-12-08T12:26:00.376Z,9.02
2022-12-08T12:27:13.240Z,9.75
2022-12-08T12:28:15.978Z,9.50
2022-12-08T12:29:20.541Z,9.23
2022-12-08T12:30:28.381Z,10.40
2022-12-08T12:31:33.898Z,10.32
2022-12-08T12:32:53.331Z,9.75
2022-12-08T12:34:19.000Z,9.63
2022-12-08T12:35:41.975Z,10.00
2022-12-08T12:36:51.179Z,10.20
2022-12-08T12:37:58.149Z,9.88
2022-12-08T12:39:01.458Z,9.75
2022-12-08T12:40:18.049Z,9.13
2022-12-08T12:41:29.119Z,9.88
2022-12-08T12:42:36.210Z,10.23
2022-12-08T12:43:39.290Z,10.80
2022-12-08T12:44:43.511Z,10.85
2022-12-08T12:45:46.699Z,9.95
2022-12-08T12:47:00.916Z,10.30
2022-12-08T12:48:03.543Z,11.25
2022-12-08T12:49:39.998Z,11.10
2022-12-08T12:50:51.209Z,10.23
2022-12-08T12:51:56.676Z,11.25
2022-12-08T12:53:17.961Z,11.38
2022-12-08T12:54:22.355Z,11.88
2022-12-08T12:55:27.442Z,11.23
2022-12-08T12:57:04.728Z,10.70
2022-12-08T12:58:19.995Z,10.38
2022-12-08T12:59:54.713Z,10.68
2022-12-08T13:01:13.440Z,10.27
2022-12-08T13:02:40.197Z,11.30
2022-12-08T13:03:47.294Z,10.32
2022-12-08T13:05:18.919Z,12.05
2022-12-08T13:06:42.899Z,11.98
2022-12-08T13:07:48.537Z,10.95
2022-12-08T13:08:53.540Z,11.55
2022-12-08T13:10:01.209Z,11.48
2022-12-08T13:11:08.946Z,10.50
2022-12-08T13:12:19.311Z,11.50
2022-12-08T13:13:21.957Z,10.30
2022-12-08T13:14:31.807Z,11.57
2022-12-08T13:15:37.447Z,10.35
2022-12-08T13:16:40.594Z,11.20
2022-12-08T13:17:46.591Z,10.70
2022-12-08T13:18:51.329Z,9.85
2022-12-08T13:19:59.477Z,10.40
2022-12-08T13:21:08.826Z,10.25
2022-12-08T13:22:53.808Z,10.80
2022-12-08T13:24:13.954Z,11.88
2022-12-08T13:25:44.781Z,7.60
2022-12-08T13:27:05.523Z,11.57
2022-12-08T13:28:34.415Z,11.45
2022-12-08T13:29:40.315Z,10.90
2022-12-08T13:30:57.619Z,12.15
2022-12-08T13:32:01.221Z,12.70
2022-12-08T13:33:19.652Z,12.02
2022-12-08T13:34:28.165Z,12.00
2022-12-08T13:35:31.246Z,11.35
2022-12-08T13:36:38.273Z,11.98
2022-12-08T13:37:54.744Z,13.05
2022-12-08T13:38:58.883Z,11.43
2022-12-08T13:40:04.013Z,11.25
2022-12-08T13:41:13.580Z,11.35
2022-12-08T13:42:22.201Z,12.60
2022-12-08T13:44:50.430Z,12.75
2022-12-08T13:46:12.162Z,12.25
2022-12-08T13:47:24.701Z,10.63
2022-12-08T13:49:09.539Z,11.05
2022-12-08T13:55:49.541Z,11.82
2022-12-08T13:57:27.718Z,12.20
2022-12-08T13:58:37.648Z,12.73
2022-12-08T13:59:44.798Z,12.35
2022-12-08T14:00:58.593Z,11.85
2022-12-08T14:02:16.510Z,12.52
2022-12-08T14:03:19.448Z,13.20
2022-12-08T14:06:11.605Z,13.52
2022-12-08T14:07:12.321Z,12.77
2022-12-08T14:08:36.316Z,12.50
2022-12-08T14:09:43.276Z,13.32
2022-12-08T14:10:48.191Z,13.10
2022-12-08T14:12:00.758Z,13.98
2022-12-08T14:13:06.244Z,12.55
2022-12-08T14:14:45.931Z,12.77
2022-12-08T14:15:44.538Z,12.77
2022-12-08T14:16:59.063Z,12.95
2022-12-08T14:18:01.903Z,12.63
2022-12-08T14:19:06.909Z,12.82
2022-12-08T14:20:12.349Z,13.55
2022-12-08T14:21:22.255Z,11.93
2022-12-08T14:22:25.496Z,14.43
2022-12-08T14:23:28.358Z,13.45
2022-12-08T14:24:32.426Z,13.18
2022-12-08T14:25:36.071Z,12.98
2022-12-08T14:26:38.947Z,13.82
2022-12-08T14:27:41.797Z,14.18
2022-12-08T14:28:45.349Z,14.43
2022-12-08T14:29:48.678Z,14.07
2022-12-08T14:30:51.719Z,16.80
2022-12-08T14:31:54.509Z,15.57
2022-12-08T14:33:01.732Z,14.80
2022-12-08T14:34:04.613Z,15.20
2022-12-08T14:35:07.611Z,15.23
2022-12-08T14:36:11.531Z,14.65
2022-12-08T14:37:14.515Z,15.40
2022-12-08T14:38:19.137Z,15.48
2022-12-08T14:39:22.071Z,14.80
2022-12-08T14:40:25.857Z,16.08
2022-12-08T14:41:33.284Z,15.88
2022-12-08T14:42:44.543Z,16.50
2022-12-08T14:43:58.753Z,16.15
2022-12-08T14:45:06.091Z,16.67
2022-12-08T14:46:23.057Z,15.43
2022-12-08T14:47:30.259Z,14.77
2022-12-08T14:48:38.666Z,16.02
2022-12-08T14:49:41.790Z,15.63
2022-12-08T14:50:59.761Z,15.13
2022-12-08T14:52:03.006Z,16.15
2022-12-08T14:53:13.361Z,15.40
2022-12-08T14:54:19.224Z,15.35
2022-12-08T14:55:22.025Z,14.85
2022-12-08T14:56:31.487Z,16.30
2022-12-08T14:57:35.487Z,16.60
2022-12-08T14:58:38.500Z,15.15
2022-12-08T14:59:42.559Z,16.40
2022-12-08T15:00:49.381Z,15.63
2022-12-08T15:01:55.969Z,16.20
2022-12-08T15:02:58.864Z,14.80
2022-12-08T15:04:07.658Z,15.60